97IL weather

Graham Hospital Heliport
Canton, Illinois, United States

Public forecast

Using degrees Fahrenheit for public forecast. Weather courtesy of forecast.io.

METAR (pilot weather report)

Closest report is General Wayne A. Downing Peoria International Airport, 17.0 nm (31.6 km) ENE. Retrieved 2019/06/25 10:54 UTC (49 minutes ago):

KPIA 251054Z 22005KT 10SM CLR 17/14 A2989 RMK AO2 SLP118 T01670139

TAF (pilot weather forecast)

Closest forecast is General Wayne A. Downing Peoria International Airport, 17.0 nm (31.6 km) ENE. Retrieved 2019/06/25 06:22 UTC (5 hours ago):

TAF KPIA 250520Z 2506/2606 24007KT P6SM SKC FM251500 22012KT P6SM SKC FM251800 22012G20KT P6SM SKC FM260000 22008KT P6SM BKN070 WS020/24045KT PROB30 2600/2603 4SM -TSRA BKN050CB FM260300 21008KT P6SM BKN100